Time;durP1;ratioP1;P1;durP2;ratioP2;P2;SDS_P1;SDS_P2;PMS_P1;PMS_P2;Temp;Humidity;BMP_temperature;BMP_pressure;BME280_temperature;BME280_humidity;BME280_pressure;Samples;Min_cycle;Max_cycle;Signal;HPM_P1;HPM_P2
2022/04/25 00:01:51;;;;;;;2.13;1.90;;;11.70;74.10;;;7.74;90.29;94560.16;5010781;28;20133;-51
2022/04/25 00:04:29;;;;;;;2.10;1.75;;;11.80;74.10;;;7.75;90.27;94563.59;5013887;28;20081;-51
2022/04/25 00:06:55;;;;;;;1.88;1.52;;;11.80;74.20;;;7.75;90.20;94561.72;5013874;28;20097;-51
2022/04/25 00:09:21;;;;;;;2.22;1.52;;;11.70;74.00;;;7.75;90.40;94567.03;5011014;28;20148;-49
2022/04/25 00:11:49;;;;;;;3.08;2.00;;;11.80;74.10;;;7.76;90.55;94573.13;5011563;28;20042;-52
2022/04/25 00:14:15;;;;;;;2.97;1.70;;;11.80;74.10;;;7.78;90.48;94571.00;5010748;28;20396;-51
2022/04/25 00:16:41;;;;;;;2.33;1.60;;;11.80;74.20;;;7.82;90.33;94569.38;4991464;28;20058;-51
2022/04/25 00:19:10;;;;;;;1.70;1.60;;;11.80;74.20;;;7.84;90.34;94565.41;5007498;28;20046;-55
2022/04/25 00:21:35;;;;;;;3.10;1.88;;;11.80;74.20;;;7.83;90.24;94563.00;5009502;28;20093;-53
2022/04/25 00:24:01;;;;;;;1.98;1.65;;;11.80;74.20;;;7.85;90.28;94574.13;5008554;28;20638;-53
2022/04/25 00:26:30;;;;;;;2.08;1.80;;;11.80;74.20;;;7.80;90.35;94561.72;4992992;28;20081;-51
2022/04/25 00:28:58;;;;;;;3.00;2.05;;;11.80;74.30;;;7.79;90.61;94565.41;5008517;28;20054;-52
2022/04/25 00:31:35;;;;;;;2.58;1.98;;;11.80;74.40;;;7.83;90.49;94563.00;5008347;28;20061;-56
2022/04/25 00:34:01;;;;;;;2.60;2.03;;;11.80;74.40;;;7.82;90.53;94569.38;5009913;28;20038;-56
2022/04/25 00:36:29;;;;;;;3.10;2.42;;;11.80;74.50;;;7.69;90.53;94552.19;5010683;28;20444;-54
2022/04/25 00:38:58;;;;;;;4.50;2.60;;;11.80;74.40;;;7.79;90.83;94568.06;5008175;28;20065;-55
2022/04/25 00:41:30;;;;;;;3.10;2.78;;;11.80;74.60;;;7.78;90.83;94568.34;5010191;28;20046;-56
2022/04/25 00:43:57;;;;;;;3.00;2.60;;;11.80;74.70;;;7.83;90.87;94571.78;5008769;28;20046;-52
2022/04/25 00:46:27;;;;;;;4.13;2.60;;;11.80;74.70;;;7.85;90.81;94566.97;4992650;28;20045;-56
2022/04/25 00:49:02;;;;;;;3.83;2.63;;;11.80;74.90;;;7.94;90.76;94577.03;4993196;28;20099;-56
2022/04/25 00:51:36;;;;;;;3.55;2.42;;;11.80;74.90;;;7.92;90.73;94579.16;5007867;28;20145;-55
2022/04/25 00:54:02;;;;;;;4.30;2.80;;;11.90;75.00;;;7.95;90.68;94576.75;5000221;28;20600;-51
2022/04/25 00:56:28;;;;;;;2.95;2.65;;;11.90;74.90;;;7.96;90.76;94577.53;4974621;28;20476;-51
2022/04/25 00:58:58;;;;;;;2.97;2.58;;;11.90;74.90;;;7.96;91.11;94580.19;4989558;28;20042;-52
2022/04/25 01:01:28;;;;;;;4.85;3.50;;;11.90;75.00;;;7.92;91.05;94582.59;5008458;28;20067;-54
2022/04/25 01:03:57;;;;;;;3.67;2.95;;;11.90;75.00;;;7.92;91.11;94582.59;4986067;28;20066;-50
2022/04/25 01:06:26;;;;;;;3.90;3.40;;;11.90;75.00;;;7.88;91.44;94585.00;4991083;28;20043;-53
2022/04/25 01:09:13;;;;;;;4.75;3.58;;;11.90;75.20;;;7.92;91.51;94585.25;4976723;28;20114;-54
2022/04/25 01:11:39;;;;;;;3.80;3.20;;;11.90;75.20;;;7.97;91.47;94577.28;5009472;28;20077;-50
2022/04/25 01:14:20;;;;;;;3.40;3.08;;;11.90;75.20;;;7.94;91.45;94583.13;4978667;28;20073;-54
2022/04/25 01:16:47;;;;;;;3.40;2.95;;;11.90;75.50;;;7.98;91.36;94586.81;4970054;28;20050;-55
2022/04/25 01:19:14;;;;;;;4.63;3.60;;;11.90;75.30;;;7.99;91.30;94584.94;5000500;28;20092;-51
2022/04/25 01:22:12;;;;;;;3.55;3.25;;;11.90;75.30;;;7.99;91.46;94587.59;4972062;28;20120;-52
2022/04/25 01:27:22;;;;;;;4.40;3.42;;;12.00;75.40;;;7.97;91.33;94585.22;5009028;28;20100;-53
2022/04/25 01:29:53;;;;;;;4.10;3.53;;;12.00;75.30;;;7.97;91.34;94582.59;5009838;28;20085;-50
2022/04/25 01:32:24;;;;;;;4.22;3.72;;;12.00;75.50;;;8.02;91.31;94589.72;4996076;28;20078;-54
2022/04/25 01:34:49;;;;;;;4.70;3.35;;;12.00;75.50;;;8.00;91.25;94583.91;5062369;22;20506;-57
2022/04/25 01:37:18;;;;;;;4.18;3.38;;;12.00;75.40;;;7.99;91.12;94588.41;5019455;28;20049;-55
2022/04/25 01:39:50;;;;;;;5.40;3.92;;;12.00;75.50;;;8.01;90.98;94585.47;5015512;28;20107;-53
2022/04/25 01:42:31;;;;;;;5.05;3.85;;;12.00;75.50;;;8.00;91.29;94586.56;5040785;28;20426;-55
2022/04/25 01:44:57;;;;;;;5.22;3.80;;;12.00;75.50;;;7.97;91.12;94582.59;5049950;28;20044;-58
2022/04/25 01:47:24;;;;;;;4.47;4.07;;;12.00;75.40;;;8.01;91.00;94591.56;5052609;28;20067;-51
2022/04/25 01:49:50;;;;;;;4.45;3.63;;;12.00;75.50;;;8.05;91.22;94589.16;5052853;28;20059;-57
2022/04/25 01:52:34;;;;;;;5.10;3.97;;;12.00;75.50;;;8.03;91.34;94602.72;5072558;28;20387;-55
2022/04/25 01:55:02;;;;;;;6.13;4.00;;;12.00;75.70;;;8.02;91.21;94595.00;5049130;28;20055;-56
2022/04/25 01:57:28;;;;;;;5.63;3.97;;;12.00;75.60;;;8.03;91.15;94591.31;5035125;28;20037;-55
2022/04/25 01:59:58;;;;;;;4.65;4.15;;;12.00;75.50;;;8.05;91.09;94595.28;5044845;28;20062;-57
2022/04/25 02:02:23;;;;;;;6.72;4.20;;;12.00;75.60;;;8.05;91.12;94597.94;5051498;28;20055;-53
2022/04/25 02:04:50;;;;;;;4.85;4.00;;;12.00;75.50;;;8.08;91.12;94596.56;5047339;28;20146;-55
2022/04/25 02:07:22;;;;;;;6.03;4.75;;;12.00;75.50;;;8.08;91.10;94600.03;5062657;28;20121;-53
2022/04/25 02:09:48;;;;;;;5.37;3.87;;;12.00;75.60;;;8.09;91.16;94604.28;5068917;28;20078;-51
2022/04/25 02:12:14;;;;;;;6.90;4.60;;;12.00;75.50;;;8.13;91.00;94607.19;5070011;28;20113;-54
2022/04/25 02:14:42;;;;;;;7.28;4.78;;;12.00;75.50;;;8.13;91.02;94609.03;5051770;28;20562;-57
2022/04/25 02:17:10;;;;;;;5.45;4.75;;;12.10;75.60;;;8.14;90.95;94605.31;5072716;28;20143;-55
2022/04/25 02:19:38;;;;;;;6.60;4.82;;;12.10;75.50;;;8.11;91.07;94618.03;5070746;28;20052;-55
2022/04/25 02:22:11;;;;;;;5.70;4.90;;;12.10;75.50;;;8.08;91.08;94609.84;5045505;28;20037;-55
2022/04/25 02:24:40;;;;;;;;;;;12.10;75.50;;;8.12;91.09;94616.22;5027269;28;20416;-56
2022/04/25 02:27:09;;;;;;;5.65;4.30;;;12.10;75.20;;;8.12;90.91;94613.56;5037847;28;19921;-53
2022/04/25 02:29:40;;;;;;;4.95;4.43;;;12.10;75.20;;;8.08;90.95;94605.34;5046054;28;20033;-55
2022/04/25 02:32:21;;;;;;;5.80;4.22;;;12.10;75.10;;;8.07;90.94;94611.69;5045033;28;20140;-55
2022/04/25 02:34:47;;;;;;;5.30;4.32;;;12.10;75.20;;;8.05;91.24;94623.66;5049043;28;20117;-53
2022/04/25 02:37:15;;;;;;;6.28;4.38;;;12.10;75.30;;;8.07;91.03;94610.91;5065233;28;20050;-53
2022/04/25 02:39:41;;;;;;;5.95;4.40;;;12.10;75.30;;;8.10;91.14;94611.16;5064473;28;20102;-51
2022/04/25 02:42:10;;;;;;;5.07;4.57;;;12.10;75.30;;;8.07;91.10;94606.41;5051599;28;20112;-54
2022/04/25 02:44:42;;;;;;;6.47;4.20;;;12.10;75.40;;;8.08;91.01;94612.50;5057364;28;20078;-56
2022/04/25 02:47:08;;;;;;;6.32;4.25;;;12.10;75.50;;;8.10;91.14;94619.13;5039525;28;20498;-52
2022/04/25 02:49:34;;;;;;;5.00;3.83;;;12.10;75.40;;;8.09;91.13;94622.84;5030610;28;20124;-56
2022/04/25 02:52:00;;;;;;;5.95;4.82;;;12.10;75.40;;;8.11;91.02;94631.31;5008598;28;20149;-54
2022/04/25 02:54:26;;;;;;;5.30;4.25;;;12.10;75.50;;;8.09;91.01;94622.84;5025710;28;20048;-54
2022/04/25 02:56:55;;;;;;;5.45;4.68;;;12.10;75.50;;;8.14;90.88;94629.19;5051738;28;20391;-51
2022/04/25 02:59:21;;;;;;;6.30;4.70;;;12.20;75.50;;;8.12;90.91;94626.81;5071484;28;20376;-55
2022/04/25 03:01:47;;;;;;;7.53;4.57;;;12.10;75.50;;;8.14;90.96;94626.53;5045881;28;20060;-54
2022/04/25 03:04:13;;;;;;;5.60;4.32;;;12.10;75.50;;;8.13;91.00;94630.25;5051316;28;20499;-54
2022/04/25 03:06:39;;;;;;;6.78;4.90;;;12.10;75.50;;;8.16;90.89;94632.38;5068239;28;20139;-52
2022/04/25 03:09:05;;;;;;;5.35;4.85;;;12.10;75.40;;;8.16;90.78;94642.97;5064839;28;20057;-53
2022/04/25 03:11:31;;;;;;;5.53;4.50;;;12.10;75.50;;;8.16;90.61;94635.03;5051294;28;20528;-50
2022/04/25 03:13:59;;;;;;;5.95;4.07;;;12.10;75.50;;;8.18;90.78;94639.00;5066252;28;21497;-53
2022/04/25 03:16:25;;;;;;;7.78;4.13;;;12.20;75.50;;;8.20;90.63;94638.72;5069168;28;20464;-55
2022/04/25 03:18:51;;;;;;;5.05;3.42;;;12.20;75.50;;;8.15;90.90;94636.88;5050723;28;20044;-53
2022/04/25 03:21:22;;;;;;;3.90;3.30;;;12.20;75.40;;;8.22;90.55;94636.59;5052628;28;20496;-56
2022/04/25 03:23:53;;;;;;;3.95;3.28;;;12.20;75.40;;;8.21;90.41;94646.41;5068020;28;20045;-56
2022/04/25 03:26:19;;;;;;;5.50;2.88;;;12.20;75.30;;;8.15;90.13;94641.38;5068737;28;20049;-54
2022/04/25 03:28:50;;;;;;;4.82;3.47;;;12.20;75.20;;;8.15;90.29;94647.50;5070062;28;20058;-50
2022/04/25 03:31:16;;;;;;;5.10;3.53;;;12.20;75.10;;;8.10;90.51;94637.69;5035257;28;20057;-54
2022/04/25 03:33:42;;;;;;;4.00;2.90;;;12.20;75.10;;;8.08;90.29;94644.31;5048387;28;20048;-55
2022/04/25 03:36:09;;;;;;;3.40;2.97;;;12.20;75.00;;;8.00;90.06;94640.38;5069006;28;20059;-52
2022/04/25 03:38:36;;;;;;;3.05;2.53;;;12.20;75.00;;;8.04;90.09;94638.75;5050235;28;20033;-52
2022/04/25 03:41:02;;;;;;;3.53;2.90;;;12.10;74.90;;;7.95;90.06;94647.56;5068592;28;20036;-53
2022/04/25 03:43:32;;;;;;;3.38;3.05;;;12.10;74.90;;;7.94;89.95;94633.50;5043432;28;20119;-51
2022/04/25 03:45:57;;;;;;;4.25;3.33;;;12.10;74.90;;;7.96;90.01;94641.19;5066687;28;20052;-52
2022/04/25 03:48:32;;;;;;;4.30;3.00;;;12.00;74.90;;;7.96;90.08;94643.84;5049357;28;20056;-50
2022/04/25 03:50:58;;;;;;;4.60;3.08;;;12.10;74.90;;;7.97;89.95;94648.88;5065264;28;20084;-53
2022/04/25 03:53:23;;;;;;;3.72;2.97;;;12.00;74.90;;;7.99;89.73;94648.59;5066665;28;20068;-50
2022/04/25 03:58:36;;;;;;;14.18;9.68;;;12.00;75.00;;;7.99;89.87;94645.94;5055573;28;20340;-51
2022/04/25 04:01:08;;;;;;;4.50;3.03;;;12.00;74.90;;;7.96;89.91;94642.00;5043985;28;20124;-50
2022/04/25 04:03:39;;;;;;;3.95;3.10;;;12.10;75.00;;;7.97;90.02;94646.22;5058303;28;20072;-50
2022/04/25 04:06:07;;;;;;;5.15;3.47;;;12.00;74.90;;;7.93;89.93;94645.19;5057934;28;20048;-53
2022/04/25 04:08:36;;;;;;;5.53;3.40;;;12.00;74.90;;;7.96;90.19;94654.44;5068455;28;20052;-50
2022/04/25 04:11:05;;;;;;;5.00;3.17;;;12.10;75.00;;;7.93;90.23;94650.50;5048257;28;20033;-52
2022/04/25 04:13:34;;;;;;;4.60;2.85;;;12.00;74.90;;;7.96;90.33;94659.75;5055401;28;20059;-52
2022/04/25 04:16:03;;;;;;;6.28;4.28;;;12.00;75.00;;;7.98;90.14;94655.75;5050326;28;20060;-51
2022/04/25 04:18:32;;;;;;;2.63;2.28;;;12.00;75.00;;;7.89;90.18;94660.03;5046996;28;20533;-51
2022/04/25 04:20:57;;;;;;;3.20;2.50;;;12.00;75.00;;;7.95;90.15;94663.47;5062413;28;20479;-52
2022/04/25 04:23:26;;;;;;;4.53;2.85;;;12.00;75.00;;;7.93;90.17;94670.88;5070279;28;20079;-53
2022/04/25 04:25:52;;;;;;;2.92;2.38;;;12.00;75.00;;;7.88;90.21;94653.94;5027771;28;20054;-55
2022/04/25 04:28:18;;;;;;;3.97;2.25;;;12.00;75.00;;;7.93;90.06;94677.00;5068461;28;20102;-56
2022/04/25 04:30:46;;;;;;;4.25;2.20;;;12.00;75.00;;;7.88;90.07;94674.34;5050164;28;20083;-52
2022/04/25 04:33:12;;;;;;;2.72;2.13;;;12.00;75.00;;;7.94;90.12;94678.59;5068187;28;20395;-53
2022/04/25 04:38:22;;;;;;;4.43;2.30;;;12.00;75.00;;;7.96;90.01;94686.25;5038789;28;20541;-54
2022/04/25 04:40:50;;;;;;;3.60;2.22;;;12.00;75.00;;;7.83;90.23;94669.88;5064506;28;20080;-51
2022/04/25 04:43:19;;;;;;;4.72;2.33;;;12.00;75.00;;;7.92;90.09;94686.00;5067781;28;20060;-57
2022/04/25 04:45:44;;;;;;;3.75;2.65;;;12.00;75.00;;;7.89;90.28;94695.28;5065464;28;20068;-56
2022/04/25 04:48:10;;;;;;;3.40;2.55;;;12.00;75.00;;;7.92;90.24;94693.19;5067739;28;20514;-57
2022/04/25 04:50:39;;;;;;;4.47;2.85;;;12.00;75.00;;;7.93;90.40;94708.00;5046442;28;20052;-54
2022/04/25 04:53:05;;;;;;;4.20;2.80;;;12.00;75.00;;;7.93;90.51;94708.81;5060610;28;20155;-56
2022/04/25 04:55:33;;;;;;;5.90;3.13;;;12.00;75.10;;;7.95;90.54;94687.34;5069739;28;20032;-56
2022/04/25 04:58:02;;;;;;;4.85;2.85;;;12.00;75.10;;;7.96;90.38;94696.88;5050334;28;20036;-55
2022/04/25 05:00:29;;;;;;;7.10;3.00;;;12.00;75.10;;;7.97;90.23;94701.13;5046876;28;20080;-56
2022/04/25 05:03:01;;;;;;;4.65;3.10;;;12.00;75.10;;;7.99;90.12;94702.44;5039873;28;20039;-56
2022/04/25 05:05:27;;;;;;;4.68;3.15;;;12.10;75.20;;;7.96;90.16;94705.66;5067953;28;20084;-56
2022/04/25 05:07:53;;;;;;;4.65;3.20;;;12.00;75.00;;;7.96;90.33;94708.28;5072303;28;20080;-57
2022/04/25 05:10:22;;;;;;;5.07;3.40;;;12.00;75.00;;;8.00;90.27;94705.91;5052415;28;20041;-55
2022/04/25 05:12:56;;;;;;;8.98;4.80;;;12.10;75.10;;;8.00;90.11;94713.84;5064584;28;20055;-53
2022/04/25 05:15:22;;;;;;;6.13;4.30;;;12.10;75.10;;;7.99;89.98;94715.72;5070877;28;20040;-57
2022/04/25 05:17:55;;;;;;;5.40;3.75;;;12.10;75.00;;;8.00;90.10;94719.16;5055737;28;20425;-54
2022/04/25 05:20:23;;;;;;;5.22;4.13;;;12.10;75.00;;;8.03;90.20;94719.41;5071246;28;20044;-52
2022/04/25 05:22:56;;;;;;;8.70;4.72;;;12.10;74.90;;;8.06;90.06;94726.81;5052999;28;20395;-54
2022/04/25 05:25:25;;;;;;;5.45;4.43;;;12.20;75.00;;;8.07;89.99;94722.31;5072661;28;20506;-52
2022/04/25 05:27:56;;;;;;;5.95;4.18;;;12.20;75.00;;;8.04;90.21;94728.16;5069048;28;20514;-55
2022/04/25 05:30:26;;;;;;;4.38;3.53;;;12.20;75.00;;;8.06;90.20;94726.81;5053621;28;20056;-56
2022/04/25 05:33:02;;;;;;;3.60;3.03;;;12.20;75.00;;;8.09;90.16;94722.84;5049253;28;20049;-58
2022/04/25 05:35:33;;;;;;;5.72;3.22;;;12.20;75.00;;;8.06;90.26;94718.88;5065306;28;20036;-53
2022/04/25 05:38:00;;;;;;;4.90;3.17;;;12.20;74.90;;;8.11;90.25;94726.78;5051554;28;20033;-56
2022/04/25 05:40:27;;;;;;;4.03;3.28;;;12.20;74.80;;;8.09;90.12;94726.28;5065063;28;20049;-54
2022/04/25 05:42:57;;;;;;;4.43;2.80;;;12.30;74.80;;;8.14;90.29;94730.78;5035337;28;20843;-56
2022/04/25 05:45:46;;;;;;;4.38;2.90;;;12.40;74.90;;;8.17;89.89;94732.09;5065123;28;20041;-57
2022/04/25 05:53:41;;;;;;;3.20;2.60;;;12.40;74.60;;;8.26;89.70;94736.59;5015079;28;20580;-55
2022/04/25 05:56:06;;;;;;;3.63;2.60;;;12.50;74.60;;;8.23;89.63;94738.97;5048542;28;20075;-56
2022/04/25 05:58:32;;;;;;;4.28;2.60;;;12.50;74.60;;;8.25;89.62;94742.16;5050868;28;20033;-54
2022/04/25 06:00:59;;;;;;;3.58;2.33;;;12.50;74.50;;;8.30;89.81;94742.97;5060275;28;20036;-52
2022/04/25 06:03:25;;;;;;;3.35;2.40;;;12.50;74.50;;;8.32;89.53;94740.03;5071897;28;20430;-56
2022/04/25 06:05:54;;;;;;;3.08;2.55;;;12.60;74.50;;;8.34;89.63;94749.31;5062049;28;20028;-58
2022/04/25 06:08:20;;;;;;;3.90;2.40;;;12.60;74.50;;;8.30;89.47;94740.31;5037891;28;20410;-54
2022/04/25 06:10:46;;;;;;;4.10;2.80;;;12.60;74.40;;;8.34;89.39;94757.25;5053437;28;20432;-53
2022/04/25 06:13:13;;;;;;;3.72;2.42;;;12.60;74.40;;;8.35;89.44;94753.53;5071926;28;20142;-55
2022/04/25 06:15:39;;;;;;;3.28;2.70;;;12.60;74.40;;;8.35;89.39;94744.78;5030119;28;20032;-54
2022/04/25 06:18:08;;;;;;;3.92;2.90;;;12.60;74.40;;;8.42;89.34;94747.19;5068043;28;20089;-56
2022/04/25 06:20:35;;;;;;;6.03;2.60;;;12.70;74.40;;;8.46;89.51;94748.22;5071437;28;20048;-55
2022/04/25 06:23:02;;;;;;;3.13;2.55;;;12.70;74.40;;;8.45;89.25;94755.38;5069130;28;20094;-56
2022/04/25 06:25:31;;;;;;;5.35;2.70;;;12.80;74.30;;;8.43;89.33;94752.22;5046173;28;20040;-54
2022/04/25 06:27:58;;;;;;;4.50;2.90;;;12.80;74.30;;;8.43;89.23;94744.28;5051169;28;20048;-58
2022/04/25 06:30:29;;;;;;;4.63;2.83;;;12.80;74.20;;;8.46;89.17;94757.00;5050022;28;20032;-52
2022/04/25 06:32:59;;;;;;;4.68;2.60;;;12.80;74.10;;;8.42;89.08;94742.66;5050692;28;20036;-57
2022/04/25 06:35:29;;;;;;;3.72;2.90;;;12.90;74.10;;;8.50;89.09;94757.25;5042173;28;20115;-57
2022/04/25 06:37:55;;;;;;;3.78;2.65;;;12.90;74.00;;;8.54;89.16;94752.97;5033342;28;20111;-53
2022/04/25 06:40:24;;;;;;;3.08;2.42;;;12.90;74.00;;;8.55;88.93;94763.34;5024908;28;20415;-55
2022/04/25 06:42:52;;;;;;;3.83;2.72;;;12.90;74.00;;;8.61;89.04;94760.66;5067446;28;20430;-55
2022/04/25 06:45:24;;;;;;;2.50;2.30;;;13.00;74.00;;;8.65;88.84;94767.81;5028171;28;20028;-56
2022/04/25 06:47:50;;;;;;;2.78;2.33;;;13.10;74.00;;;8.66;88.80;94760.63;5036211;28;20624;-52
2022/04/25 06:50:16;;;;;;;2.88;2.20;;;13.10;74.60;;;8.70;88.42;94769.63;5051040;28;20068;-56
2022/04/25 06:52:42;;;;;;;2.45;2.15;;;13.20;73.80;;;8.69;88.67;94768.84;5051070;28;20055;-53
2022/04/25 06:55:09;;;;;;;4.80;2.15;;;13.20;73.70;;;8.71;88.50;94768.56;5067503;28;20036;-55
2022/04/25 06:57:35;;;;;;;3.90;1.75;;;13.20;73.50;;;8.67;88.11;94759.56;5071274;28;20032;-55
2022/04/25 07:00:11;;;;;;;3.35;2.10;;;13.20;73.50;;;8.77;87.93;94762.97;5053011;28;20380;-55
2022/04/25 07:02:37;;;;;;;5.20;1.77;;;13.20;73.30;;;8.81;87.92;94768.53;5065673;28;20055;-55
2022/04/25 07:05:09;;;;;;;2.10;1.38;;;13.30;73.30;;;8.83;87.75;94770.91;5070793;28;20074;-57
2022/04/25 07:07:35;;;;;;;1.83;1.42;;;13.30;73.30;;;8.75;87.55;94756.34;5069536;28;20392;-55
2022/04/25 07:10:02;;;;;;;5.72;1.50;;;13.30;73.20;;;8.73;87.55;94763.78;5053608;28;20051;-55
2022/04/25 07:12:28;;;;;;;2.13;1.20;;;13.40;73.00;;;8.75;87.08;94780.25;5069303;28;20628;-55
2022/04/25 07:14:57;;;;;;;1.20;1.10;;;13.40;72.90;;;8.70;87.45;94764.31;5068810;28;20052;-54
2022/04/25 07:17:26;;;;;;;1.20;1.10;;;13.40;72.70;;;8.72;86.96;94764.84;5037138;28;20043;-55
2022/04/25 07:19:54;;;;;;;1.80;1.38;;;13.50;72.70;;;8.77;86.97;94781.56;5066629;28;20078;-57
2022/04/25 07:30:30;;;;;;;2.50;1.17;;;13.60;72.50;;;8.95;86.60;94780.13;5070981;28;20047;-54
2022/04/25 07:33:00;;;;;;;1.13;0.93;;;13.60;72.40;;;8.92;85.24;94783.34;5068243;28;20061;-56
2022/04/25 07:35:27;;;;;;;0.88;0.88;;;13.60;72.30;;;8.98;85.80;94792.88;5043823;23;20459;-57
2022/04/25 07:37:55;;;;;;;1.52;0.70;;;13.60;72.20;;;8.77;85.61;94786.06;5030946;28;20033;-54
2022/04/25 07:40:24;;;;;;;2.03;0.82;;;13.60;72.00;;;8.86;86.31;94781.78;5029965;28;20171;-53
2022/04/25 07:42:55;;;;;;;1.92;0.90;;;13.50;71.90;;;8.94;86.01;94789.19;5064974;28;20052;-57
2022/04/25 07:45:21;;;;;;;2.30;0.93;;;13.60;72.00;;;8.84;85.68;94786.59;5079409;28;20056;-52
2022/04/25 07:47:51;;;;;;;1.02;0.70;;;13.50;72.00;;;8.86;85.95;94794.25;5065815;28;20135;-55
2022/04/25 07:50:23;;;;;;;2.95;0.85;;;13.40;71.90;;;8.88;85.92;94792.13;5070312;28;20131;-56
2022/04/25 07:52:51;;;;;;;1.00;0.90;;;13.40;72.00;;;8.89;85.91;94793.72;5050129;28;20036;-52
2022/04/25 07:55:19;;;;;;;0.80;0.70;;;13.40;72.00;;;8.87;85.52;94793.19;5049847;28;20490;-53
2022/04/25 07:57:46;;;;;;;0.80;0.70;;;13.50;71.90;;;8.90;85.34;94792.66;5070084;28;20040;-53
2022/04/25 08:00:15;;;;;;;4.75;0.80;;;13.60;71.80;;;8.98;85.61;94802.72;5052257;28;20503;-55
2022/04/25 08:02:41;;;;;;;1.02;0.70;;;13.60;71.80;;;9.05;85.58;94805.84;5059799;28;20486;-53
2022/04/25 08:05:07;;;;;;;1.10;0.70;;;13.60;71.70;;;9.07;84.46;94803.72;5057652;28;20102;-54
2022/04/25 08:07:44;;;;;;;0.55;0.55;;;13.70;71.70;;;9.11;84.49;94809.28;5068969;28;20033;-55
2022/04/25 08:10:10;;;;;;;0.80;0.60;;;13.80;71.40;;;9.07;84.39;94803.72;5056828;28;20060;-55
2022/04/25 08:18:07;;;;;;;1.42;0.75;;;14.00;71.20;;;9.29;84.17;94813.97;5066665;28;20055;-54
2022/04/25 08:20:37;;;;;;;1.10;0.55;;;14.00;71.00;;;9.40;84.51;94815.50;5049776;28;20049;-57
2022/04/25 08:23:08;;;;;;;1.50;0.63;;;14.10;71.00;;;9.49;84.33;94824.50;5030193;28;20599;-52
2022/04/25 08:25:33;;;;;;;0.93;0.60;;;14.20;70.90;;;9.53;84.07;94824.75;5029733;28;20111;-57
2022/04/25 08:28:00;;;;;;;1.63;0.70;;;14.30;70.70;;;9.61;83.50;94826.78;5047237;28;20120;-53
2022/04/25 08:30:28;;;;;;;0.80;0.70;;;14.30;70.60;;;9.65;82.57;94829.69;5011930;28;20140;-50
2022/04/25 08:33:01;;;;;;;1.33;0.75;;;14.50;70.40;;;9.79;83.69;94829.88;5041686;28;20090;-51
2022/04/25 08:35:27;;;;;;;1.55;0.70;;;14.60;70.30;;;9.89;83.45;94830.59;5042433;28;20143;-52
2022/04/25 08:37:56;;;;;;;0.85;0.77;;;14.70;70.20;;;9.83;82.21;94836.22;5027442;28;20049;-55
2022/04/25 08:40:23;;;;;;;0.80;0.80;;;14.80;69.90;;;9.93;82.50;94831.63;5019518;28;20134;-52
2022/04/25 08:42:49;;;;;;;0.80;0.70;;;14.90;69.80;;;9.96;82.51;94841.72;5044005;28;20184;-53
2022/04/25 08:45:15;;;;;;;0.60;0.60;;;14.90;69.60;;;9.94;81.85;94838.53;5033209;28;20120;-54
2022/04/25 08:47:49;;;;;;;1.05;0.70;;;14.80;69.40;;;9.93;81.76;94844.13;5071001;28;20116;-55
2022/04/25 08:50:19;;;;;;;0.70;0.70;;;14.80;69.20;;;9.84;81.24;94849.25;5048465;28;20036;-56
2022/04/25 08:52:46;;;;;;;1.67;0.80;;;14.80;68.90;;;9.85;81.58;94844.72;5038316;28;20036;-53
2022/04/25 08:55:13;;;;;;;0.70;0.65;;;14.70;68.90;;;9.83;82.00;94849.53;5072338;28;20041;-55
2022/04/25 08:57:40;;;;;;;1.05;0.80;;;14.70;68.90;;;9.87;82.32;94851.38;5073206;28;20454;-53
2022/04/25 09:00:10;;;;;;;0.82;0.80;;;14.60;69.00;;;9.88;82.31;94849.50;5064877;28;20037;-55
2022/04/25 09:02:39;;;;;;;1.20;0.82;;;14.60;69.00;;;9.97;83.04;94839.84;5072541;28;20044;-60
2022/04/25 09:05:07;;;;;;;0.80;0.80;;;14.70;69.10;;;9.91;81.36;94847.06;5068516;28;20047;-52
2022/04/25 09:07:37;;;;;;;2.50;1.00;;;14.80;69.60;;;9.96;82.28;94841.72;5044708;28;20032;-57
2022/04/25 09:10:15;;;;;;;0.60;0.60;;;14.90;68.70;;;10.09;82.48;94847.44;5031581;28;20045;-55
2022/04/25 09:12:46;;;;;;;0.68;0.65;;;15.10;68.70;;;10.10;82.49;94838.41;5061401;28;20045;-57
2022/04/25 09:15:15;;;;;;;1.70;0.70;;;15.30;68.50;;;10.22;81.25;94851.38;5053508;28;20410;-54
2022/04/25 09:17:41;;;;;;;0.60;0.60;;;15.40;68.10;;;10.24;81.19;94855.31;5069660;28;20056;-56
2022/04/25 09:20:13;;;;;;;0.60;0.60;;;15.50;67.70;;;10.43;81.23;94850.09;5049609;28;20033;-55
2022/04/25 09:22:40;;;;;;;2.95;0.90;;;15.70;67.80;;;10.57;80.65;94853.72;5032604;28;20094;-56
2022/04/25 09:25:13;;;;;;;0.75;0.75;;;15.80;67.50;;;10.71;79.47;94845.84;5056910;28;20056;-57
2022/04/25 09:27:41;;;;;;;1.00;0.80;;;16.10;67.20;;;10.78;77.46;94854.31;5056774;28;20040;-52
2022/04/25 09:30:21;;;;;;;2.70;0.80;;;16.20;66.70;;;10.84;80.70;94852.34;5027738;28;20113;-58
2022/04/25 09:32:52;;;;;;;1.92;0.90;;;16.50;66.20;;;11.07;77.61;94856.09;5033728;28;20071;-55
2022/04/25 09:35:37;;;;;;;0.80;0.80;;;16.80;65.70;;;11.24;77.07;94856.41;5049158;28;20521;-53
2022/04/25 09:38:08;;;;;;;1.35;0.90;;;17.30;64.80;;;11.51;77.99;94857.69;5051802;28;20042;-55
2022/04/25 09:40:37;;;;;;;0.85;0.75;;;17.60;64.30;;;11.68;76.24;94860.63;5033632;28;20047;-54
2022/04/25 09:43:06;;;;;;;1.17;0.90;;;17.90;63.60;;;11.95;78.41;94865.34;5028632;28;20369;-54
2022/04/25 09:45:33;;;;;;;0.70;0.70;;;18.10;63.40;;;12.06;74.45;94857.19;5048415;28;20045;-55
2022/04/25 09:48:00;;;;;;;0.90;0.77;;;18.20;62.50;;;12.24;74.78;94867.03;5037280;28;20439;-53
2022/04/25 09:50:27;;;;;;;2.30;1.30;;;18.20;62.30;;;12.20;74.48;94864.16;5068622;28;20044;-57
2022/04/25 09:53:02;;;;;;;1.30;1.10;;;18.20;62.00;;;12.23;74.94;94865.47;5059247;28;20056;-55
2022/04/25 09:55:34;;;;;;;0.77;0.77;;;18.10;61.70;;;12.27;76.14;94861.91;5069726;28;20074;-54
2022/04/25 09:58:23;;;;;;;0.80;0.70;;;17.90;61.90;;;12.21;74.21;94871.06;5048242;28;20478;-55
2022/04/25 10:00:53;;;;;;;0.85;0.85;;;17.90;61.60;;;12.16;72.90;94871.19;5029833;28;20501;-58
2022/04/25 10:03:35;;;;;;;0.70;0.70;;;17.80;61.30;;;12.05;70.78;94867.06;5072317;28;20040;-57
2022/04/25 10:06:03;;;;;;;2.47;0.90;;;17.80;60.70;;;11.98;75.07;94874.66;5063971;28;20407;-56
2022/04/25 10:08:35;;;;;;;1.00;0.85;;;17.80;60.70;;;11.84;73.74;94871.88;5037739;28;20046;-54
2022/04/25 10:11:07;;;;;;;1.10;0.90;;;17.70;60.50;;;11.55;74.63;94877.34;5068654;28;20044;-57
2022/04/25 10:13:34;;;;;;;2.00;0.97;;;17.70;59.80;;;11.64;77.02;94880.97;5051688;28;20057;-57
2022/04/25 10:16:04;;;;;;;1.02;0.90;;;17.60;60.20;;;11.37;75.72;94878.13;5050029;28;20299;-56
2022/04/25 10:18:32;;;;;;;1.00;0.85;;;17.40;60.60;;;11.66;77.65;94884.16;5047062;28;20817;-57
2022/04/25 10:21:00;;;;;;;1.77;0.93;;;17.30;60.60;;;11.60;77.23;94889.84;5051116;28;20463;-56
2022/04/25 10:23:26;;;;;;;2.35;1.23;;;17.30;60.50;;;11.49;75.86;94892.63;5049885;28;20052;-59
2022/04/25 10:25:57;;;;;;;0.63;0.63;;;17.30;60.60;;;11.29;73.42;94892.91;5072217;28;20111;-58
2022/04/25 10:28:48;;;;;;;1.00;0.70;;;17.20;60.00;;;11.33;74.54;94894.69;5053551;28;20026;-57
2022/04/25 10:31:49;;;;;;;0.85;0.60;;;17.20;59.90;;;11.34;74.25;94906.16;5051179;28;20093;-57
2022/04/25 10:34:16;;;;;;;0.90;0.80;;;17.20;59.70;;;11.35;73.64;94908.53;5032223;28;20453;-59
2022/04/25 10:36:47;;;;;;;1.00;0.70;;;17.20;59.70;;;11.43;75.92;94904.44;5037655;28;20044;-57
2022/04/25 10:39:17;;;;;;;1.27;0.80;;;17.30;59.70;;;11.50;75.95;94912.09;5054190;28;20032;-60
2022/04/25 10:44:56;;;;;;;1.33;0.93;;;17.40;59.90;;;11.69;75.58;94910.25;5071980;28;20446;-60
2022/04/25 10:47:28;;;;;;;0.73;0.73;;;17.50;59.90;;;11.68;75.80;94915.88;5063459;28;20140;-58
2022/04/25 10:49:55;;;;;;;0.60;0.60;;;17.60;59.40;;;11.64;74.35;94921.00;5071778;28;20395;-58
2022/04/25 10:52:33;;;;;;;0.77;0.75;;;17.70;59.20;;;11.57;76.13;94923.22;5068554;28;20060;-59
2022/04/25 10:55:23;;;;;;;2.50;0.68;;;17.80;58.30;;;11.91;76.61;94919.56;5052933;28;20036;-58
2022/04/25 10:58:04;;;;;;;1.15;0.82;;;17.90;58.80;;;12.18;77.51;94921.59;5046392;28;20131;-59
2022/04/25 11:00:42;;;;;;;0.75;0.75;;;18.20;59.10;;;12.20;74.05;94922.09;5031470;28;20037;-60
2022/04/25 11:03:20;;;;;;;0.95;0.95;;;18.40;58.60;;;12.40;74.49;94932.47;5043189;28;20112;-57
2022/04/25 11:05:56;;;;;;;1.88;1.10;;;18.60;58.50;;;12.48;74.95;94931.03;5049372;28;20052;-56